<?xml version="1.0" encoding="UTF-8" standalone="no" ?>
<gpx xmlns="http://www.topografix.com/GPX/1/1" xmlns:xsi="http://www.w3.org/2001/XMLSchema-instance" xsi:schemaLocation="http://www.topografix.com/GPX/1/1 http://www.topografix.com/GPX/1/1/gpx.xsd" version="1.1" creator="VisuGPX - https://www.visugpx.com">
  <metadata>
    <name>2022-06-28 13:48:24</name>
  </metadata>
  <trk>
    <name><![CDATA[2022-06-28 13:48:24]]></name>
    <trkseg>
      <trkpt lat="47.99385" lon="-3.72391">
        <ele>197.69</ele>
        <time>2022-06-28T09:48:59Z</time>
      </trkpt>
      <trkpt lat="47.99354" lon="-3.72413">
        <ele>197.69</ele>
        <time>2022-06-28T09:50:56Z</time>
      </trkpt>
      <trkpt lat="47.99346" lon="-3.72422">
        <ele>197.69</ele>
        <time>2022-06-28T09:51:10Z</time>
      </trkpt>
      <trkpt lat="47.99308" lon="-3.72467">
        <ele>195.28</ele>
        <time>2022-06-28T09:51:55Z</time>
      </trkpt>
      <trkpt lat="47.99291" lon="-3.72489">
        <ele>193.84</ele>
        <time>2022-06-28T09:52:11Z</time>
      </trkpt>
      <trkpt lat="47.9929" lon="-3.72496">
        <ele>193.84</ele>
        <time>2022-06-28T09:52:26Z</time>
      </trkpt>
      <trkpt lat="47.99283" lon="-3.72503">
        <ele>192.88</ele>
        <time>2022-06-28T09:53:20Z</time>
      </trkpt>
      <trkpt lat="47.99273" lon="-3.72515">
        <ele>191.92</ele>
        <time>2022-06-28T09:53:31Z</time>
      </trkpt>
      <trkpt lat="47.99267" lon="-3.72532">
        <ele>190.96</ele>
        <time>2022-06-28T09:53:43Z</time>
      </trkpt>
      <trkpt lat="47.99255" lon="-3.7255">
        <ele>189.04</ele>
        <time>2022-06-28T09:53:54Z</time>
      </trkpt>
      <trkpt lat="47.99247" lon="-3.72566">
        <ele>188.08</ele>
        <time>2022-06-28T09:54:03Z</time>
      </trkpt>
      <trkpt lat="47.99235" lon="-3.72582">
        <ele>186.63</ele>
        <time>2022-06-28T09:54:18Z</time>
      </trkpt>
      <trkpt lat="47.99227" lon="-3.72607">
        <ele>185.67</ele>
        <time>2022-06-28T09:54:32Z</time>
      </trkpt>
      <trkpt lat="47.99218" lon="-3.72631">
        <ele>182.79</ele>
        <time>2022-06-28T09:54:48Z</time>
      </trkpt>
      <trkpt lat="47.99214" lon="-3.72655">
        <ele>181.83</ele>
        <time>2022-06-28T09:55:01Z</time>
      </trkpt>
      <trkpt lat="47.99207" lon="-3.72671">
        <ele>180.38</ele>
        <time>2022-06-28T09:55:14Z</time>
      </trkpt>
      <trkpt lat="47.99197" lon="-3.72684">
        <ele>180.38</ele>
        <time>2022-06-28T09:55:26Z</time>
      </trkpt>
      <trkpt lat="47.99189" lon="-3.72696">
        <ele>179.9</ele>
        <time>2022-06-28T09:55:35Z</time>
      </trkpt>
      <trkpt lat="47.99179" lon="-3.72715">
        <ele>179.9</ele>
        <time>2022-06-28T09:55:46Z</time>
      </trkpt>
      <trkpt lat="47.99175" lon="-3.72727">
        <ele>180.87</ele>
        <time>2022-06-28T09:55:54Z</time>
      </trkpt>
      <trkpt lat="47.99169" lon="-3.72742">
        <ele>181.83</ele>
        <time>2022-06-28T09:56:04Z</time>
      </trkpt>
      <trkpt lat="47.99162" lon="-3.72771">
        <ele>183.75</ele>
        <time>2022-06-28T09:56:21Z</time>
      </trkpt>
      <trkpt lat="47.99157" lon="-3.72786">
        <ele>184.23</ele>
        <time>2022-06-28T09:56:42Z</time>
      </trkpt>
      <trkpt lat="47.99152" lon="-3.72811">
        <ele>184.23</ele>
        <time>2022-06-28T09:56:56Z</time>
      </trkpt>
      <trkpt lat="47.99151" lon="-3.72836">
        <ele>184.23</ele>
        <time>2022-06-28T09:57:08Z</time>
      </trkpt>
      <trkpt lat="47.99157" lon="-3.72861">
        <ele>183.75</ele>
        <time>2022-06-28T09:57:23Z</time>
      </trkpt>
      <trkpt lat="47.99156" lon="-3.72889">
        <ele>185.19</ele>
        <time>2022-06-28T09:57:37Z</time>
      </trkpt>
      <trkpt lat="47.99152" lon="-3.72911">
        <ele>185.19</ele>
        <time>2022-06-28T09:57:50Z</time>
      </trkpt>
      <trkpt lat="47.99151" lon="-3.72932">
        <ele>186.63</ele>
        <time>2022-06-28T09:58:03Z</time>
      </trkpt>
      <trkpt lat="47.99154" lon="-3.7296">
        <ele>187.59</ele>
        <time>2022-06-28T09:58:20Z</time>
      </trkpt>
      <trkpt lat="47.99154" lon="-3.7298">
        <ele>188.08</ele>
        <time>2022-06-28T09:58:32Z</time>
      </trkpt>
      <trkpt lat="47.99156" lon="-3.73004">
        <ele>189.04</ele>
        <time>2022-06-28T09:58:45Z</time>
      </trkpt>
      <trkpt lat="47.99155" lon="-3.73031">
        <ele>188.08</ele>
        <time>2022-06-28T09:59:01Z</time>
      </trkpt>
      <trkpt lat="47.99153" lon="-3.73052">
        <ele>187.59</ele>
        <time>2022-06-28T09:59:15Z</time>
      </trkpt>
      <trkpt lat="47.99151" lon="-3.7308">
        <ele>186.63</ele>
        <time>2022-06-28T09:59:32Z</time>
      </trkpt>
      <trkpt lat="47.99151" lon="-3.73114">
        <ele>187.11</ele>
        <time>2022-06-28T09:59:49Z</time>
      </trkpt>
      <trkpt lat="47.99153" lon="-3.73139">
        <ele>187.11</ele>
        <time>2022-06-28T10:00:05Z</time>
      </trkpt>
      <trkpt lat="47.99148" lon="-3.73171">
        <ele>185.67</ele>
        <time>2022-06-28T10:01:00Z</time>
      </trkpt>
      <trkpt lat="47.99141" lon="-3.732">
        <ele>186.15</ele>
        <time>2022-06-28T10:01:18Z</time>
      </trkpt>
      <trkpt lat="47.99137" lon="-3.73219">
        <ele>185.19</ele>
        <time>2022-06-28T10:01:29Z</time>
      </trkpt>
      <trkpt lat="47.99135" lon="-3.73238">
        <ele>185.19</ele>
        <time>2022-06-28T10:01:43Z</time>
      </trkpt>
      <trkpt lat="47.99125" lon="-3.73268">
        <ele>185.19</ele>
        <time>2022-06-28T10:01:57Z</time>
      </trkpt>
      <trkpt lat="47.99118" lon="-3.73292">
        <ele>184.23</ele>
        <time>2022-06-28T10:02:11Z</time>
      </trkpt>
      <trkpt lat="47.99118" lon="-3.73315">
        <ele>184.71</ele>
        <time>2022-06-28T10:02:24Z</time>
      </trkpt>
      <trkpt lat="47.99123" lon="-3.73341">
        <ele>185.67</ele>
        <time>2022-06-28T10:02:37Z</time>
      </trkpt>
      <trkpt lat="47.99126" lon="-3.73363">
        <ele>186.63</ele>
        <time>2022-06-28T10:02:49Z</time>
      </trkpt>
      <trkpt lat="47.99131" lon="-3.73382">
        <ele>185.67</ele>
        <time>2022-06-28T10:03:00Z</time>
      </trkpt>
      <trkpt lat="47.99136" lon="-3.73401">
        <ele>186.15</ele>
        <time>2022-06-28T10:03:10Z</time>
      </trkpt>
      <trkpt lat="47.99136" lon="-3.73421">
        <ele>185.19</ele>
        <time>2022-06-28T10:03:22Z</time>
      </trkpt>
      <trkpt lat="47.99141" lon="-3.73436">
        <ele>184.71</ele>
        <time>2022-06-28T10:03:33Z</time>
      </trkpt>
      <trkpt lat="47.99142" lon="-3.73456">
        <ele>184.71</ele>
        <time>2022-06-28T10:03:44Z</time>
      </trkpt>
      <trkpt lat="47.99146" lon="-3.73482">
        <ele>184.23</ele>
        <time>2022-06-28T10:03:58Z</time>
      </trkpt>
      <trkpt lat="47.99153" lon="-3.735">
        <ele>184.23</ele>
        <time>2022-06-28T10:04:10Z</time>
      </trkpt>
      <trkpt lat="47.99161" lon="-3.73526">
        <ele>184.71</ele>
        <time>2022-06-28T10:04:26Z</time>
      </trkpt>
      <trkpt lat="47.99168" lon="-3.73544">
        <ele>184.23</ele>
        <time>2022-06-28T10:04:38Z</time>
      </trkpt>
      <trkpt lat="47.99169" lon="-3.73571">
        <ele>183.27</ele>
        <time>2022-06-28T10:04:50Z</time>
      </trkpt>
      <trkpt lat="47.99169" lon="-3.73598">
        <ele>182.31</ele>
        <time>2022-06-28T10:05:05Z</time>
      </trkpt>
      <trkpt lat="47.99174" lon="-3.73617">
        <ele>181.35</ele>
        <time>2022-06-28T10:05:15Z</time>
      </trkpt>
      <trkpt lat="47.99176" lon="-3.73637">
        <ele>179.42</ele>
        <time>2022-06-28T10:05:29Z</time>
      </trkpt>
      <trkpt lat="47.99178" lon="-3.7366">
        <ele>176.06</ele>
        <time>2022-06-28T10:05:42Z</time>
      </trkpt>
      <trkpt lat="47.99181" lon="-3.73689">
        <ele>171.25</ele>
        <time>2022-06-28T10:05:57Z</time>
      </trkpt>
      <trkpt lat="47.99187" lon="-3.73709">
        <ele>169.81</ele>
        <time>2022-06-28T10:06:08Z</time>
      </trkpt>
      <trkpt lat="47.9919" lon="-3.73731">
        <ele>169.33</ele>
        <time>2022-06-28T10:06:19Z</time>
      </trkpt>
      <trkpt lat="47.99198" lon="-3.73748">
        <ele>169.81</ele>
        <time>2022-06-28T10:06:33Z</time>
      </trkpt>
      <trkpt lat="47.99198" lon="-3.73776">
        <ele>173.17</ele>
        <time>2022-06-28T10:06:47Z</time>
      </trkpt>
      <trkpt lat="47.99202" lon="-3.73799">
        <ele>175.58</ele>
        <time>2022-06-28T10:07:02Z</time>
      </trkpt>
      <trkpt lat="47.99206" lon="-3.73816">
        <ele>177.02</ele>
        <time>2022-06-28T10:07:14Z</time>
      </trkpt>
      <trkpt lat="47.99212" lon="-3.73831">
        <ele>178.94</ele>
        <time>2022-06-28T10:07:27Z</time>
      </trkpt>
      <trkpt lat="47.99215" lon="-3.73857">
        <ele>179.9</ele>
        <time>2022-06-28T10:07:44Z</time>
      </trkpt>
      <trkpt lat="47.99217" lon="-3.73877">
        <ele>180.38</ele>
        <time>2022-06-28T10:08:01Z</time>
      </trkpt>
      <trkpt lat="47.99206" lon="-3.73896">
        <ele>180.38</ele>
        <time>2022-06-28T10:08:25Z</time>
      </trkpt>
      <trkpt lat="47.99194" lon="-3.73912">
        <ele>180.87</ele>
        <time>2022-06-28T10:08:40Z</time>
      </trkpt>
      <trkpt lat="47.99186" lon="-3.73934">
        <ele>182.79</ele>
        <time>2022-06-28T10:08:55Z</time>
      </trkpt>
      <trkpt lat="47.99177" lon="-3.7396">
        <ele>181.35</ele>
        <time>2022-06-28T10:09:12Z</time>
      </trkpt>
      <trkpt lat="47.99166" lon="-3.73979">
        <ele>180.38</ele>
        <time>2022-06-28T10:09:27Z</time>
      </trkpt>
      <trkpt lat="47.99153" lon="-3.73999">
        <ele>178.94</ele>
        <time>2022-06-28T10:09:44Z</time>
      </trkpt>
      <trkpt lat="47.99139" lon="-3.74018">
        <ele>177.98</ele>
        <time>2022-06-28T10:10:00Z</time>
      </trkpt>
      <trkpt lat="47.99126" lon="-3.74042">
        <ele>176.54</ele>
        <time>2022-06-28T10:10:16Z</time>
      </trkpt>
      <trkpt lat="47.99114" lon="-3.74061">
        <ele>176.54</ele>
        <time>2022-06-28T10:10:30Z</time>
      </trkpt>
      <trkpt lat="47.99104" lon="-3.74081">
        <ele>177.02</ele>
        <time>2022-06-28T10:10:45Z</time>
      </trkpt>
      <trkpt lat="47.99096" lon="-3.74103">
        <ele>177.5</ele>
        <time>2022-06-28T10:10:59Z</time>
      </trkpt>
      <trkpt lat="47.99084" lon="-3.74118">
        <ele>177.5</ele>
        <time>2022-06-28T10:11:11Z</time>
      </trkpt>
      <trkpt lat="47.99069" lon="-3.7413">
        <ele>177.02</ele>
        <time>2022-06-28T10:11:25Z</time>
      </trkpt>
      <trkpt lat="47.99057" lon="-3.7415">
        <ele>177.5</ele>
        <time>2022-06-28T10:11:39Z</time>
      </trkpt>
      <trkpt lat="47.99048" lon="-3.74168">
        <ele>176.54</ele>
        <time>2022-06-28T10:11:54Z</time>
      </trkpt>
      <trkpt lat="47.99029" lon="-3.74222">
        <ele>172.69</ele>
        <time>2022-06-28T10:24:36Z</time>
      </trkpt>
      <trkpt lat="47.99023" lon="-3.74242">
        <ele>172.69</ele>
        <time>2022-06-28T10:24:56Z</time>
      </trkpt>
      <trkpt lat="47.99029" lon="-3.74264">
        <ele>170.77</ele>
        <time>2022-06-28T10:25:11Z</time>
      </trkpt>
      <trkpt lat="47.99029" lon="-3.74288">
        <ele>170.77</ele>
        <time>2022-06-28T10:25:25Z</time>
      </trkpt>
      <trkpt lat="47.99032" lon="-3.74313">
        <ele>170.29</ele>
        <time>2022-06-28T10:25:39Z</time>
      </trkpt>
      <trkpt lat="47.99035" lon="-3.74331">
        <ele>169.81</ele>
        <time>2022-06-28T10:25:49Z</time>
      </trkpt>
      <trkpt lat="47.9904" lon="-3.74348">
        <ele>169.33</ele>
        <time>2022-06-28T10:25:59Z</time>
      </trkpt>
      <trkpt lat="47.99045" lon="-3.74368">
        <ele>167.89</ele>
        <time>2022-06-28T10:26:12Z</time>
      </trkpt>
      <trkpt lat="47.99047" lon="-3.74388">
        <ele>166.93</ele>
        <time>2022-06-28T10:26:27Z</time>
      </trkpt>
      <trkpt lat="47.99053" lon="-3.74413">
        <ele>165.96</ele>
        <time>2022-06-28T10:26:41Z</time>
      </trkpt>
      <trkpt lat="47.99054" lon="-3.74432">
        <ele>165.96</ele>
        <time>2022-06-28T10:26:54Z</time>
      </trkpt>
      <trkpt lat="47.99073" lon="-3.74442">
        <ele>165</ele>
        <time>2022-06-28T10:27:12Z</time>
      </trkpt>
      <trkpt lat="47.99086" lon="-3.74448">
        <ele>163.56</ele>
        <time>2022-06-28T10:27:23Z</time>
      </trkpt>
      <trkpt lat="47.99099" lon="-3.7446">
        <ele>164.04</ele>
        <time>2022-06-28T10:27:36Z</time>
      </trkpt>
      <trkpt lat="47.9911" lon="-3.74468">
        <ele>164.52</ele>
        <time>2022-06-28T10:27:47Z</time>
      </trkpt>
      <trkpt lat="47.99121" lon="-3.74479">
        <ele>164.52</ele>
        <time>2022-06-28T10:27:57Z</time>
      </trkpt>
      <trkpt lat="47.99134" lon="-3.74488">
        <ele>165</ele>
        <time>2022-06-28T10:28:09Z</time>
      </trkpt>
      <trkpt lat="47.9915" lon="-3.74495">
        <ele>165.48</ele>
        <time>2022-06-28T10:28:23Z</time>
      </trkpt>
      <trkpt lat="47.9917" lon="-3.74502">
        <ele>165.96</ele>
        <time>2022-06-28T10:28:39Z</time>
      </trkpt>
      <trkpt lat="47.99185" lon="-3.74513">
        <ele>164.52</ele>
        <time>2022-06-28T10:28:54Z</time>
      </trkpt>
      <trkpt lat="47.99202" lon="-3.74522">
        <ele>163.56</ele>
        <time>2022-06-28T10:29:10Z</time>
      </trkpt>
      <trkpt lat="47.99219" lon="-3.74529">
        <ele>163.56</ele>
        <time>2022-06-28T10:29:21Z</time>
      </trkpt>
      <trkpt lat="47.99228" lon="-3.74533">
        <ele>163.56</ele>
        <time>2022-06-28T10:29:30Z</time>
      </trkpt>
      <trkpt lat="47.99246" lon="-3.74544">
        <ele>163.08</ele>
        <time>2022-06-28T10:29:47Z</time>
      </trkpt>
      <trkpt lat="47.99263" lon="-3.74556">
        <ele>162.12</ele>
        <time>2022-06-28T10:30:02Z</time>
      </trkpt>
      <trkpt lat="47.99279" lon="-3.74566">
        <ele>162.12</ele>
        <time>2022-06-28T10:30:17Z</time>
      </trkpt>
      <trkpt lat="47.99291" lon="-3.74573">
        <ele>162.12</ele>
        <time>2022-06-28T10:30:28Z</time>
      </trkpt>
      <trkpt lat="47.99308" lon="-3.74585">
        <ele>161.16</ele>
        <time>2022-06-28T10:30:43Z</time>
      </trkpt>
      <trkpt lat="47.99322" lon="-3.7459">
        <ele>160.68</ele>
        <time>2022-06-28T10:30:54Z</time>
      </trkpt>
      <trkpt lat="47.99334" lon="-3.74593">
        <ele>160.68</ele>
        <time>2022-06-28T10:31:04Z</time>
      </trkpt>
      <trkpt lat="47.99348" lon="-3.74595">
        <ele>161.16</ele>
        <time>2022-06-28T10:31:26Z</time>
      </trkpt>
      <trkpt lat="47.99361" lon="-3.74603">
        <ele>161.16</ele>
        <time>2022-06-28T10:31:38Z</time>
      </trkpt>
      <trkpt lat="47.99371" lon="-3.74605">
        <ele>161.16</ele>
        <time>2022-06-28T10:31:44Z</time>
      </trkpt>
      <trkpt lat="47.99384" lon="-3.74609">
        <ele>162.12</ele>
        <time>2022-06-28T10:31:56Z</time>
      </trkpt>
      <trkpt lat="47.99406" lon="-3.74602">
        <ele>162.6</ele>
        <time>2022-06-28T10:32:14Z</time>
      </trkpt>
      <trkpt lat="47.99429" lon="-3.74606">
        <ele>163.08</ele>
        <time>2022-06-28T10:32:29Z</time>
      </trkpt>
      <trkpt lat="47.99443" lon="-3.7461">
        <ele>163.56</ele>
        <time>2022-06-28T10:32:40Z</time>
      </trkpt>
      <trkpt lat="47.99454" lon="-3.74617">
        <ele>163.56</ele>
        <time>2022-06-28T10:32:51Z</time>
      </trkpt>
      <trkpt lat="47.99462" lon="-3.74626">
        <ele>165</ele>
        <time>2022-06-28T10:33:02Z</time>
      </trkpt>
      <trkpt lat="47.99479" lon="-3.74631">
        <ele>164.52</ele>
        <time>2022-06-28T10:33:16Z</time>
      </trkpt>
      <trkpt lat="47.99491" lon="-3.74641">
        <ele>164.52</ele>
        <time>2022-06-28T10:33:27Z</time>
      </trkpt>
      <trkpt lat="47.995" lon="-3.74657">
        <ele>164.52</ele>
        <time>2022-06-28T10:33:38Z</time>
      </trkpt>
      <trkpt lat="47.99511" lon="-3.74665">
        <ele>164.52</ele>
        <time>2022-06-28T10:33:48Z</time>
      </trkpt>
      <trkpt lat="47.9952" lon="-3.74676">
        <ele>164.04</ele>
        <time>2022-06-28T10:33:58Z</time>
      </trkpt>
      <trkpt lat="47.99528" lon="-3.74686">
        <ele>163.08</ele>
        <time>2022-06-28T10:34:07Z</time>
      </trkpt>
      <trkpt lat="47.99538" lon="-3.74695">
        <ele>163.08</ele>
        <time>2022-06-28T10:34:17Z</time>
      </trkpt>
      <trkpt lat="47.99552" lon="-3.74712">
        <ele>162.12</ele>
        <time>2022-06-28T10:34:38Z</time>
      </trkpt>
      <trkpt lat="47.99562" lon="-3.7472">
        <ele>162.6</ele>
        <time>2022-06-28T10:34:47Z</time>
      </trkpt>
      <trkpt lat="47.99577" lon="-3.74727">
        <ele>162.12</ele>
        <time>2022-06-28T10:34:59Z</time>
      </trkpt>
      <trkpt lat="47.99589" lon="-3.74729">
        <ele>162.12</ele>
        <time>2022-06-28T10:35:07Z</time>
      </trkpt>
      <trkpt lat="47.99608" lon="-3.74724">
        <ele>162.12</ele>
        <time>2022-06-28T10:35:22Z</time>
      </trkpt>
      <trkpt lat="47.99631" lon="-3.74715">
        <ele>162.6</ele>
        <time>2022-06-28T10:35:40Z</time>
      </trkpt>
      <trkpt lat="47.99645" lon="-3.74711">
        <ele>162.6</ele>
        <time>2022-06-28T10:35:50Z</time>
      </trkpt>
      <trkpt lat="47.99662" lon="-3.74702">
        <ele>163.08</ele>
        <time>2022-06-28T10:36:04Z</time>
      </trkpt>
      <trkpt lat="47.99676" lon="-3.74696">
        <ele>163.08</ele>
        <time>2022-06-28T10:36:16Z</time>
      </trkpt>
      <trkpt lat="47.99691" lon="-3.74694">
        <ele>163.56</ele>
        <time>2022-06-28T10:36:29Z</time>
      </trkpt>
      <trkpt lat="47.9971" lon="-3.74686">
        <ele>164.52</ele>
        <time>2022-06-28T10:36:45Z</time>
      </trkpt>
      <trkpt lat="47.9973" lon="-3.74679">
        <ele>165.48</ele>
        <time>2022-06-28T10:37:01Z</time>
      </trkpt>
      <trkpt lat="47.99745" lon="-3.74672">
        <ele>165.48</ele>
        <time>2022-06-28T10:37:15Z</time>
      </trkpt>
      <trkpt lat="47.99751" lon="-3.7469">
        <ele>165.48</ele>
        <time>2022-06-28T10:37:26Z</time>
      </trkpt>
      <trkpt lat="47.99751" lon="-3.7471">
        <ele>165.48</ele>
        <time>2022-06-28T10:37:35Z</time>
      </trkpt>
      <trkpt lat="47.99752" lon="-3.74726">
        <ele>165</ele>
        <time>2022-06-28T10:37:45Z</time>
      </trkpt>
      <trkpt lat="47.99755" lon="-3.74741">
        <ele>165</ele>
        <time>2022-06-28T10:37:55Z</time>
      </trkpt>
      <trkpt lat="47.99758" lon="-3.74755">
        <ele>164.52</ele>
        <time>2022-06-28T10:38:03Z</time>
      </trkpt>
      <trkpt lat="47.99762" lon="-3.74768">
        <ele>164.04</ele>
        <time>2022-06-28T10:38:09Z</time>
      </trkpt>
      <trkpt lat="47.99763" lon="-3.74786">
        <ele>163.56</ele>
        <time>2022-06-28T10:38:20Z</time>
      </trkpt>
      <trkpt lat="47.99765" lon="-3.74802">
        <ele>162.6</ele>
        <time>2022-06-28T10:38:29Z</time>
      </trkpt>
      <trkpt lat="47.99769" lon="-3.74819">
        <ele>162.12</ele>
        <time>2022-06-28T10:38:38Z</time>
      </trkpt>
      <trkpt lat="47.99772" lon="-3.74835">
        <ele>161.64</ele>
        <time>2022-06-28T10:38:48Z</time>
      </trkpt>
      <trkpt lat="47.99785" lon="-3.74849">
        <ele>162.12</ele>
        <time>2022-06-28T10:39:03Z</time>
      </trkpt>
      <trkpt lat="47.99797" lon="-3.74858">
        <ele>163.08</ele>
        <time>2022-06-28T10:39:14Z</time>
      </trkpt>
      <trkpt lat="47.99809" lon="-3.74861">
        <ele>162.6</ele>
        <time>2022-06-28T10:39:24Z</time>
      </trkpt>
      <trkpt lat="47.99821" lon="-3.74873">
        <ele>163.08</ele>
        <time>2022-06-28T10:39:36Z</time>
      </trkpt>
      <trkpt lat="47.99839" lon="-3.74888">
        <ele>163.08</ele>
        <time>2022-06-28T10:39:51Z</time>
      </trkpt>
      <trkpt lat="47.99852" lon="-3.74897">
        <ele>163.08</ele>
        <time>2022-06-28T10:40:01Z</time>
      </trkpt>
      <trkpt lat="47.9987" lon="-3.74912">
        <ele>162.6</ele>
        <time>2022-06-28T10:40:18Z</time>
      </trkpt>
      <trkpt lat="47.99885" lon="-3.74925">
        <ele>162.6</ele>
        <time>2022-06-28T10:40:34Z</time>
      </trkpt>
      <trkpt lat="47.99901" lon="-3.74933">
        <ele>162.6</ele>
        <time>2022-06-28T10:40:45Z</time>
      </trkpt>
      <trkpt lat="47.99911" lon="-3.74948">
        <ele>161.16</ele>
        <time>2022-06-28T10:40:57Z</time>
      </trkpt>
      <trkpt lat="47.99924" lon="-3.74955">
        <ele>160.2</ele>
        <time>2022-06-28T10:41:10Z</time>
      </trkpt>
      <trkpt lat="47.99935" lon="-3.74969">
        <ele>159.72</ele>
        <time>2022-06-28T10:41:45Z</time>
      </trkpt>
      <trkpt lat="47.99955" lon="-3.7498">
        <ele>158.75</ele>
        <time>2022-06-28T10:42:02Z</time>
      </trkpt>
      <trkpt lat="47.99969" lon="-3.74987">
        <ele>158.75</ele>
        <time>2022-06-28T10:42:11Z</time>
      </trkpt>
      <trkpt lat="47.9998" lon="-3.75002">
        <ele>157.79</ele>
        <time>2022-06-28T10:42:23Z</time>
      </trkpt>
      <trkpt lat="47.99993" lon="-3.75022">
        <ele>156.35</ele>
        <time>2022-06-28T10:42:40Z</time>
      </trkpt>
      <trkpt lat="48.00003" lon="-3.75027">
        <ele>155.39</ele>
        <time>2022-06-28T10:42:48Z</time>
      </trkpt>
      <trkpt lat="48.0002" lon="-3.75045">
        <ele>154.91</ele>
        <time>2022-06-28T10:43:05Z</time>
      </trkpt>
      <trkpt lat="48.00034" lon="-3.7506">
        <ele>152.51</ele>
        <time>2022-06-28T10:43:20Z</time>
      </trkpt>
      <trkpt lat="48.00043" lon="-3.75079">
        <ele>151.06</ele>
        <time>2022-06-28T10:43:36Z</time>
      </trkpt>
      <trkpt lat="48.00042" lon="-3.75099">
        <ele>149.62</ele>
        <time>2022-06-28T10:43:49Z</time>
      </trkpt>
      <trkpt lat="48.00037" lon="-3.7512">
        <ele>148.18</ele>
        <time>2022-06-28T10:44:05Z</time>
      </trkpt>
      <trkpt lat="48.00025" lon="-3.75142">
        <ele>146.26</ele>
        <time>2022-06-28T10:44:21Z</time>
      </trkpt>
      <trkpt lat="48.00026" lon="-3.75173">
        <ele>145.78</ele>
        <time>2022-06-28T10:44:37Z</time>
      </trkpt>
      <trkpt lat="48.00031" lon="-3.75193">
        <ele>143.85</ele>
        <time>2022-06-28T10:44:50Z</time>
      </trkpt>
      <trkpt lat="48.00028" lon="-3.75216">
        <ele>140.97</ele>
        <time>2022-06-28T10:45:10Z</time>
      </trkpt>
      <trkpt lat="48.00019" lon="-3.75242">
        <ele>139.53</ele>
        <time>2022-06-28T10:45:25Z</time>
      </trkpt>
      <trkpt lat="48.00012" lon="-3.75271">
        <ele>137.61</ele>
        <time>2022-06-28T10:45:43Z</time>
      </trkpt>
      <trkpt lat="48.00011" lon="-3.75292">
        <ele>136.16</ele>
        <time>2022-06-28T10:45:57Z</time>
      </trkpt>
      <trkpt lat="48.00002" lon="-3.75309">
        <ele>134.72</ele>
        <time>2022-06-28T10:46:10Z</time>
      </trkpt>
      <trkpt lat="47.99999" lon="-3.75331">
        <ele>134.72</ele>
        <time>2022-06-28T10:46:24Z</time>
      </trkpt>
      <trkpt lat="48.00007" lon="-3.75347">
        <ele>133.28</ele>
        <time>2022-06-28T10:46:36Z</time>
      </trkpt>
      <trkpt lat="48.00012" lon="-3.75345">
        <ele>132.32</ele>
        <time>2022-06-28T10:46:49Z</time>
      </trkpt>
      <trkpt lat="48.00028" lon="-3.75342">
        <ele>131.84</ele>
        <time>2022-06-28T10:47:02Z</time>
      </trkpt>
      <trkpt lat="48.00038" lon="-3.75328">
        <ele>131.84</ele>
        <time>2022-06-28T10:47:11Z</time>
      </trkpt>
      <trkpt lat="48.00048" lon="-3.75312">
        <ele>131.84</ele>
        <time>2022-06-28T10:47:22Z</time>
      </trkpt>
      <trkpt lat="48.00054" lon="-3.75295">
        <ele>131.84</ele>
        <time>2022-06-28T10:47:32Z</time>
      </trkpt>
      <trkpt lat="48.00064" lon="-3.75277">
        <ele>131.84</ele>
        <time>2022-06-28T10:47:44Z</time>
      </trkpt>
      <trkpt lat="48.0007" lon="-3.7526">
        <ele>131.84</ele>
        <time>2022-06-28T10:47:53Z</time>
      </trkpt>
      <trkpt lat="48.00077" lon="-3.75244">
        <ele>131.84</ele>
        <time>2022-06-28T10:48:03Z</time>
      </trkpt>
      <trkpt lat="48.00084" lon="-3.75232">
        <ele>131.84</ele>
        <time>2022-06-28T10:48:14Z</time>
      </trkpt>
      <trkpt lat="48.0009" lon="-3.75217">
        <ele>131.84</ele>
        <time>2022-06-28T10:48:23Z</time>
      </trkpt>
      <trkpt lat="48.00099" lon="-3.75198">
        <ele>131.84</ele>
        <time>2022-06-28T10:48:37Z</time>
      </trkpt>
      <trkpt lat="48.00106" lon="-3.75179">
        <ele>131.36</ele>
        <time>2022-06-28T10:48:49Z</time>
      </trkpt>
      <trkpt lat="48.00115" lon="-3.75162">
        <ele>131.84</ele>
        <time>2022-06-28T10:49:00Z</time>
      </trkpt>
      <trkpt lat="48.00122" lon="-3.75146">
        <ele>132.8</ele>
        <time>2022-06-28T10:49:10Z</time>
      </trkpt>
      <trkpt lat="48.0013" lon="-3.75131">
        <ele>132.32</ele>
        <time>2022-06-28T10:49:20Z</time>
      </trkpt>
      <trkpt lat="48.00139" lon="-3.75115">
        <ele>131.84</ele>
        <time>2022-06-28T10:49:32Z</time>
      </trkpt>
      <trkpt lat="48.00149" lon="-3.75098">
        <ele>131.84</ele>
        <time>2022-06-28T10:49:43Z</time>
      </trkpt>
      <trkpt lat="48.00158" lon="-3.75079">
        <ele>132.32</ele>
        <time>2022-06-28T10:49:54Z</time>
      </trkpt>
      <trkpt lat="48.00165" lon="-3.75074">
        <ele>132.8</ele>
        <time>2022-06-28T10:52:04Z</time>
      </trkpt>
      <trkpt lat="48.00163" lon="-3.75056">
        <ele>133.28</ele>
        <time>2022-06-28T10:52:46Z</time>
      </trkpt>
      <trkpt lat="48.00147" lon="-3.75061">
        <ele>133.28</ele>
        <time>2022-06-28T10:53:12Z</time>
      </trkpt>
      <trkpt lat="48.00138" lon="-3.75066">
        <ele>133.28</ele>
        <time>2022-06-28T10:53:23Z</time>
      </trkpt>
      <trkpt lat="48.00126" lon="-3.75069">
        <ele>133.28</ele>
        <time>2022-06-28T10:53:43Z</time>
      </trkpt>
      <trkpt lat="48.00138" lon="-3.75042">
        <ele>135.68</ele>
        <time>2022-06-28T10:54:04Z</time>
      </trkpt>
      <trkpt lat="48.00146" lon="-3.75027">
        <ele>136.64</ele>
        <time>2022-06-28T10:54:17Z</time>
      </trkpt>
      <trkpt lat="48.00158" lon="-3.75008">
        <ele>135.68</ele>
        <time>2022-06-28T10:54:40Z</time>
      </trkpt>
      <trkpt lat="48.00169" lon="-3.74988">
        <ele>135.2</ele>
        <time>2022-06-28T10:54:53Z</time>
      </trkpt>
      <trkpt lat="48.00172" lon="-3.74972">
        <ele>135.2</ele>
        <time>2022-06-28T10:55:07Z</time>
      </trkpt>
      <trkpt lat="48.0018" lon="-3.74956">
        <ele>135.2</ele>
        <time>2022-06-28T10:55:17Z</time>
      </trkpt>
      <trkpt lat="48.00184" lon="-3.74937">
        <ele>134.24</ele>
        <time>2022-06-28T10:55:28Z</time>
      </trkpt>
      <trkpt lat="48.00186" lon="-3.74921">
        <ele>134.72</ele>
        <time>2022-06-28T10:55:39Z</time>
      </trkpt>
      <trkpt lat="48.0019" lon="-3.74901">
        <ele>134.72</ele>
        <time>2022-06-28T10:55:51Z</time>
      </trkpt>
      <trkpt lat="48.00195" lon="-3.74882">
        <ele>135.2</ele>
        <time>2022-06-28T10:56:04Z</time>
      </trkpt>
      <trkpt lat="48.002" lon="-3.74867">
        <ele>135.68</ele>
        <time>2022-06-28T10:56:14Z</time>
      </trkpt>
      <trkpt lat="48.00192" lon="-3.74846">
        <ele>135.68</ele>
        <time>2022-06-28T10:56:23Z</time>
      </trkpt>
      <trkpt lat="48.00184" lon="-3.74833">
        <ele>136.16</ele>
        <time>2022-06-28T10:56:31Z</time>
      </trkpt>
      <trkpt lat="48.00178" lon="-3.7482">
        <ele>135.68</ele>
        <time>2022-06-28T10:56:39Z</time>
      </trkpt>
      <trkpt lat="48.00168" lon="-3.7481">
        <ele>136.16</ele>
        <time>2022-06-28T10:56:49Z</time>
      </trkpt>
      <trkpt lat="48.00158" lon="-3.74797">
        <ele>135.2</ele>
        <time>2022-06-28T10:57:00Z</time>
      </trkpt>
      <trkpt lat="48.00147" lon="-3.74785">
        <ele>135.2</ele>
        <time>2022-06-28T10:57:10Z</time>
      </trkpt>
      <trkpt lat="48.00136" lon="-3.74779">
        <ele>135.2</ele>
        <time>2022-06-28T10:57:18Z</time>
      </trkpt>
      <trkpt lat="48.00125" lon="-3.74772">
        <ele>135.2</ele>
        <time>2022-06-28T10:57:28Z</time>
      </trkpt>
      <trkpt lat="48.00114" lon="-3.74762">
        <ele>135.2</ele>
        <time>2022-06-28T10:57:40Z</time>
      </trkpt>
      <trkpt lat="48.00105" lon="-3.7475">
        <ele>135.68</ele>
        <time>2022-06-28T10:57:51Z</time>
      </trkpt>
      <trkpt lat="48.00094" lon="-3.74736">
        <ele>135.68</ele>
        <time>2022-06-28T10:58:02Z</time>
      </trkpt>
      <trkpt lat="48.00086" lon="-3.74724">
        <ele>135.68</ele>
        <time>2022-06-28T10:58:12Z</time>
      </trkpt>
      <trkpt lat="48.00073" lon="-3.74707">
        <ele>134.72</ele>
        <time>2022-06-28T10:58:26Z</time>
      </trkpt>
      <trkpt lat="48.00064" lon="-3.74692">
        <ele>135.68</ele>
        <time>2022-06-28T10:58:37Z</time>
      </trkpt>
      <trkpt lat="48.00053" lon="-3.74682">
        <ele>135.68</ele>
        <time>2022-06-28T10:58:48Z</time>
      </trkpt>
      <trkpt lat="48.00044" lon="-3.74667">
        <ele>135.2</ele>
        <time>2022-06-28T10:59:00Z</time>
      </trkpt>
      <trkpt lat="48.00033" lon="-3.74654">
        <ele>134.72</ele>
        <time>2022-06-28T10:59:12Z</time>
      </trkpt>
      <trkpt lat="48.0003" lon="-3.74633">
        <ele>134.24</ele>
        <time>2022-06-28T10:59:25Z</time>
      </trkpt>
      <trkpt lat="48.00028" lon="-3.74615">
        <ele>134.72</ele>
        <time>2022-06-28T10:59:35Z</time>
      </trkpt>
      <trkpt lat="48.00023" lon="-3.74597">
        <ele>133.76</ele>
        <time>2022-06-28T10:59:45Z</time>
      </trkpt>
      <trkpt lat="48.00025" lon="-3.74578">
        <ele>134.24</ele>
        <time>2022-06-28T10:59:56Z</time>
      </trkpt>
      <trkpt lat="48.00027" lon="-3.7456">
        <ele>134.24</ele>
        <time>2022-06-28T11:00:06Z</time>
      </trkpt>
      <trkpt lat="48.00033" lon="-3.74544">
        <ele>134.72</ele>
        <time>2022-06-28T11:00:16Z</time>
      </trkpt>
      <trkpt lat="48.00027" lon="-3.74528">
        <ele>133.76</ele>
        <time>2022-06-28T11:00:37Z</time>
      </trkpt>
      <trkpt lat="48.00008" lon="-3.74536">
        <ele>136.64</ele>
        <time>2022-06-28T11:00:57Z</time>
      </trkpt>
      <trkpt lat="47.99995" lon="-3.74541">
        <ele>138.09</ele>
        <time>2022-06-28T11:01:15Z</time>
      </trkpt>
      <trkpt lat="47.99982" lon="-3.74545">
        <ele>141.45</ele>
        <time>2022-06-28T11:01:35Z</time>
      </trkpt>
      <trkpt lat="47.99965" lon="-3.74546">
        <ele>143.37</ele>
        <time>2022-06-28T11:01:58Z</time>
      </trkpt>
      <trkpt lat="47.99952" lon="-3.74554">
        <ele>144.82</ele>
        <time>2022-06-28T11:02:15Z</time>
      </trkpt>
      <trkpt lat="47.99935" lon="-3.74562">
        <ele>146.26</ele>
        <time>2022-06-28T11:02:44Z</time>
      </trkpt>
      <trkpt lat="47.99919" lon="-3.74566">
        <ele>147.7</ele>
        <time>2022-06-28T11:03:00Z</time>
      </trkpt>
      <trkpt lat="47.99908" lon="-3.74568">
        <ele>149.62</ele>
        <time>2022-06-28T11:03:10Z</time>
      </trkpt>
      <trkpt lat="47.99892" lon="-3.74576">
        <ele>152.03</ele>
        <time>2022-06-28T11:03:26Z</time>
      </trkpt>
      <trkpt lat="47.99878" lon="-3.7458">
        <ele>155.87</ele>
        <time>2022-06-28T11:03:44Z</time>
      </trkpt>
      <trkpt lat="47.99862" lon="-3.74587">
        <ele>160.68</ele>
        <time>2022-06-28T11:04:10Z</time>
      </trkpt>
      <trkpt lat="47.99847" lon="-3.74595">
        <ele>163.56</ele>
        <time>2022-06-28T11:04:29Z</time>
      </trkpt>
      <trkpt lat="47.99832" lon="-3.74596">
        <ele>164.52</ele>
        <time>2022-06-28T11:04:45Z</time>
      </trkpt>
      <trkpt lat="47.99816" lon="-3.74602">
        <ele>165</ele>
        <time>2022-06-28T11:05:01Z</time>
      </trkpt>
      <trkpt lat="47.99803" lon="-3.74608">
        <ele>165.48</ele>
        <time>2022-06-28T11:05:14Z</time>
      </trkpt>
      <trkpt lat="47.99791" lon="-3.74612">
        <ele>165</ele>
        <time>2022-06-28T11:05:27Z</time>
      </trkpt>
      <trkpt lat="47.99778" lon="-3.74617">
        <ele>165</ele>
        <time>2022-06-28T11:05:38Z</time>
      </trkpt>
      <trkpt lat="47.99768" lon="-3.74619">
        <ele>165</ele>
        <time>2022-06-28T11:05:49Z</time>
      </trkpt>
      <trkpt lat="47.99754" lon="-3.74628">
        <ele>165</ele>
        <time>2022-06-28T11:06:01Z</time>
      </trkpt>
      <trkpt lat="47.9974" lon="-3.74629">
        <ele>164.52</ele>
        <time>2022-06-28T11:06:13Z</time>
      </trkpt>
      <trkpt lat="47.99738" lon="-3.74612">
        <ele>165</ele>
        <time>2022-06-28T11:06:28Z</time>
      </trkpt>
      <trkpt lat="47.99736" lon="-3.74596">
        <ele>165.48</ele>
        <time>2022-06-28T11:06:37Z</time>
      </trkpt>
      <trkpt lat="47.99728" lon="-3.74585">
        <ele>165.96</ele>
        <time>2022-06-28T11:07:01Z</time>
      </trkpt>
      <trkpt lat="47.99716" lon="-3.74575">
        <ele>165.96</ele>
        <time>2022-06-28T11:07:18Z</time>
      </trkpt>
      <trkpt lat="47.99708" lon="-3.74562">
        <ele>165.48</ele>
        <time>2022-06-28T11:07:30Z</time>
      </trkpt>
      <trkpt lat="47.99701" lon="-3.7455">
        <ele>165.96</ele>
        <time>2022-06-28T11:07:38Z</time>
      </trkpt>
      <trkpt lat="47.99696" lon="-3.74536">
        <ele>165.96</ele>
        <time>2022-06-28T11:07:48Z</time>
      </trkpt>
      <trkpt lat="47.99692" lon="-3.74522">
        <ele>166.93</ele>
        <time>2022-06-28T11:07:56Z</time>
      </trkpt>
      <trkpt lat="47.99689" lon="-3.74506">
        <ele>167.41</ele>
        <time>2022-06-28T11:08:04Z</time>
      </trkpt>
      <trkpt lat="47.99676" lon="-3.74497">
        <ele>166.45</ele>
        <time>2022-06-28T11:08:16Z</time>
      </trkpt>
      <trkpt lat="47.99663" lon="-3.74504">
        <ele>166.93</ele>
        <time>2022-06-28T11:08:27Z</time>
      </trkpt>
      <trkpt lat="47.99648" lon="-3.74513">
        <ele>167.41</ele>
        <time>2022-06-28T11:08:40Z</time>
      </trkpt>
      <trkpt lat="47.99633" lon="-3.74514">
        <ele>166.93</ele>
        <time>2022-06-28T11:08:52Z</time>
      </trkpt>
      <trkpt lat="47.9962" lon="-3.74513">
        <ele>166.93</ele>
        <time>2022-06-28T11:09:03Z</time>
      </trkpt>
      <trkpt lat="47.99606" lon="-3.74515">
        <ele>167.41</ele>
        <time>2022-06-28T11:09:15Z</time>
      </trkpt>
      <trkpt lat="47.99593" lon="-3.7452">
        <ele>168.37</ele>
        <time>2022-06-28T11:09:27Z</time>
      </trkpt>
      <trkpt lat="47.9958" lon="-3.7452">
        <ele>167.89</ele>
        <time>2022-06-28T11:09:37Z</time>
      </trkpt>
      <trkpt lat="47.99568" lon="-3.74519">
        <ele>167.89</ele>
        <time>2022-06-28T11:09:48Z</time>
      </trkpt>
      <trkpt lat="47.99553" lon="-3.74514">
        <ele>167.89</ele>
        <time>2022-06-28T11:10:03Z</time>
      </trkpt>
      <trkpt lat="47.99545" lon="-3.74512">
        <ele>168.37</ele>
        <time>2022-06-28T11:10:17Z</time>
      </trkpt>
      <trkpt lat="47.99535" lon="-3.74497">
        <ele>167.89</ele>
        <time>2022-06-28T11:10:49Z</time>
      </trkpt>
      <trkpt lat="47.99518" lon="-3.74483">
        <ele>167.41</ele>
        <time>2022-06-28T11:11:24Z</time>
      </trkpt>
      <trkpt lat="47.99508" lon="-3.7447">
        <ele>167.89</ele>
        <time>2022-06-28T11:11:44Z</time>
      </trkpt>
      <trkpt lat="47.99509" lon="-3.74454">
        <ele>168.85</ele>
        <time>2022-06-28T11:11:57Z</time>
      </trkpt>
      <trkpt lat="47.99507" lon="-3.74436">
        <ele>169.33</ele>
        <time>2022-06-28T11:12:08Z</time>
      </trkpt>
      <trkpt lat="47.99506" lon="-3.74421">
        <ele>169.33</ele>
        <time>2022-06-28T11:12:17Z</time>
      </trkpt>
      <trkpt lat="47.99503" lon="-3.74406">
        <ele>170.29</ele>
        <time>2022-06-28T11:12:26Z</time>
      </trkpt>
      <trkpt lat="47.99503" lon="-3.7439">
        <ele>170.29</ele>
        <time>2022-06-28T11:12:35Z</time>
      </trkpt>
      <trkpt lat="47.99499" lon="-3.74375">
        <ele>170.77</ele>
        <time>2022-06-28T11:12:45Z</time>
      </trkpt>
      <trkpt lat="47.99494" lon="-3.74358">
        <ele>171.25</ele>
        <time>2022-06-28T11:12:57Z</time>
      </trkpt>
      <trkpt lat="47.99491" lon="-3.74345">
        <ele>171.73</ele>
        <time>2022-06-28T11:13:34Z</time>
      </trkpt>
      <trkpt lat="47.99487" lon="-3.74323">
        <ele>172.69</ele>
        <time>2022-06-28T11:13:47Z</time>
      </trkpt>
      <trkpt lat="47.99485" lon="-3.74306">
        <ele>173.66</ele>
        <time>2022-06-28T11:13:57Z</time>
      </trkpt>
      <trkpt lat="47.99481" lon="-3.74283">
        <ele>173.66</ele>
        <time>2022-06-28T11:14:10Z</time>
      </trkpt>
      <trkpt lat="47.99476" lon="-3.74263">
        <ele>174.14</ele>
        <time>2022-06-28T11:14:23Z</time>
      </trkpt>
      <trkpt lat="47.99473" lon="-3.74242">
        <ele>174.14</ele>
        <time>2022-06-28T11:14:34Z</time>
      </trkpt>
      <trkpt lat="47.99473" lon="-3.74224">
        <ele>175.1</ele>
        <time>2022-06-28T11:14:45Z</time>
      </trkpt>
      <trkpt lat="47.99469" lon="-3.74207">
        <ele>175.58</ele>
        <time>2022-06-28T11:14:56Z</time>
      </trkpt>
      <trkpt lat="47.99465" lon="-3.74188">
        <ele>176.06</ele>
        <time>2022-06-28T11:15:09Z</time>
      </trkpt>
      <trkpt lat="47.99462" lon="-3.74167">
        <ele>176.54</ele>
        <time>2022-06-28T11:15:21Z</time>
      </trkpt>
      <trkpt lat="47.99457" lon="-3.74144">
        <ele>177.02</ele>
        <time>2022-06-28T11:15:33Z</time>
      </trkpt>
      <trkpt lat="47.99456" lon="-3.74128">
        <ele>177.02</ele>
        <time>2022-06-28T11:15:43Z</time>
      </trkpt>
      <trkpt lat="47.99452" lon="-3.74115">
        <ele>177.5</ele>
        <time>2022-06-28T11:15:51Z</time>
      </trkpt>
      <trkpt lat="47.9945" lon="-3.74099">
        <ele>177.98</ele>
        <time>2022-06-28T11:16:02Z</time>
      </trkpt>
      <trkpt lat="47.99447" lon="-3.74082">
        <ele>178.94</ele>
        <time>2022-06-28T11:16:12Z</time>
      </trkpt>
      <trkpt lat="47.99447" lon="-3.74063">
        <ele>178.94</ele>
        <time>2022-06-28T11:16:24Z</time>
      </trkpt>
      <trkpt lat="47.99443" lon="-3.74042">
        <ele>179.42</ele>
        <time>2022-06-28T11:16:35Z</time>
      </trkpt>
      <trkpt lat="47.99444" lon="-3.7402">
        <ele>179.42</ele>
        <time>2022-06-28T11:16:47Z</time>
      </trkpt>
      <trkpt lat="47.99441" lon="-3.74">
        <ele>180.38</ele>
        <time>2022-06-28T11:16:59Z</time>
      </trkpt>
      <trkpt lat="47.99433" lon="-3.73975">
        <ele>180.38</ele>
        <time>2022-06-28T11:17:13Z</time>
      </trkpt>
      <trkpt lat="47.99429" lon="-3.73956">
        <ele>180.87</ele>
        <time>2022-06-28T11:17:25Z</time>
      </trkpt>
      <trkpt lat="47.99427" lon="-3.7393">
        <ele>180.87</ele>
        <time>2022-06-28T11:17:38Z</time>
      </trkpt>
      <trkpt lat="47.99424" lon="-3.7391">
        <ele>181.35</ele>
        <time>2022-06-28T11:17:49Z</time>
      </trkpt>
      <trkpt lat="47.99422" lon="-3.73894">
        <ele>180.87</ele>
        <time>2022-06-28T11:18:00Z</time>
      </trkpt>
      <trkpt lat="47.99418" lon="-3.73877">
        <ele>180.38</ele>
        <time>2022-06-28T11:18:13Z</time>
      </trkpt>
      <trkpt lat="47.99416" lon="-3.73855">
        <ele>180.38</ele>
        <time>2022-06-28T11:18:26Z</time>
      </trkpt>
      <trkpt lat="47.9941" lon="-3.73834">
        <ele>179.42</ele>
        <time>2022-06-28T11:18:39Z</time>
      </trkpt>
      <trkpt lat="47.99407" lon="-3.7382">
        <ele>178.46</ele>
        <time>2022-06-28T11:18:50Z</time>
      </trkpt>
      <trkpt lat="47.99407" lon="-3.738">
        <ele>177.98</ele>
        <time>2022-06-28T11:19:05Z</time>
      </trkpt>
      <trkpt lat="47.99402" lon="-3.73779">
        <ele>176.06</ele>
        <time>2022-06-28T11:19:18Z</time>
      </trkpt>
      <trkpt lat="47.99399" lon="-3.73763">
        <ele>175.1</ele>
        <time>2022-06-28T11:19:27Z</time>
      </trkpt>
      <trkpt lat="47.99397" lon="-3.73746">
        <ele>174.14</ele>
        <time>2022-06-28T11:19:37Z</time>
      </trkpt>
      <trkpt lat="47.99393" lon="-3.73731">
        <ele>173.66</ele>
        <time>2022-06-28T11:19:48Z</time>
      </trkpt>
      <trkpt lat="47.9939" lon="-3.73714">
        <ele>173.66</ele>
        <time>2022-06-28T11:19:58Z</time>
      </trkpt>
      <trkpt lat="47.99389" lon="-3.73698">
        <ele>174.14</ele>
        <time>2022-06-28T11:20:06Z</time>
      </trkpt>
      <trkpt lat="47.99386" lon="-3.73684">
        <ele>174.14</ele>
        <time>2022-06-28T11:20:15Z</time>
      </trkpt>
      <trkpt lat="47.99383" lon="-3.73669">
        <ele>174.14</ele>
        <time>2022-06-28T11:20:24Z</time>
      </trkpt>
      <trkpt lat="47.99379" lon="-3.73655">
        <ele>174.62</ele>
        <time>2022-06-28T11:20:33Z</time>
      </trkpt>
      <trkpt lat="47.99378" lon="-3.73639">
        <ele>174.14</ele>
        <time>2022-06-28T11:20:44Z</time>
      </trkpt>
      <trkpt lat="47.99374" lon="-3.73624">
        <ele>173.66</ele>
        <time>2022-06-28T11:20:54Z</time>
      </trkpt>
      <trkpt lat="47.99374" lon="-3.73605">
        <ele>173.66</ele>
        <time>2022-06-28T11:21:10Z</time>
      </trkpt>
      <trkpt lat="47.99373" lon="-3.73584">
        <ele>174.14</ele>
        <time>2022-06-28T11:21:20Z</time>
      </trkpt>
      <trkpt lat="47.9937" lon="-3.73566">
        <ele>173.66</ele>
        <time>2022-06-28T11:21:30Z</time>
      </trkpt>
      <trkpt lat="47.99366" lon="-3.73551">
        <ele>174.14</ele>
        <time>2022-06-28T11:21:40Z</time>
      </trkpt>
      <trkpt lat="47.99364" lon="-3.73531">
        <ele>173.66</ele>
        <time>2022-06-28T11:21:52Z</time>
      </trkpt>
      <trkpt lat="47.99361" lon="-3.73508">
        <ele>174.14</ele>
        <time>2022-06-28T11:22:07Z</time>
      </trkpt>
      <trkpt lat="47.99356" lon="-3.7349">
        <ele>174.62</ele>
        <time>2022-06-28T11:22:16Z</time>
      </trkpt>
      <trkpt lat="47.99353" lon="-3.73474">
        <ele>175.1</ele>
        <time>2022-06-28T11:22:27Z</time>
      </trkpt>
      <trkpt lat="47.99351" lon="-3.73446">
        <ele>176.54</ele>
        <time>2022-06-28T11:22:41Z</time>
      </trkpt>
      <trkpt lat="47.99348" lon="-3.73427">
        <ele>177.02</ele>
        <time>2022-06-28T11:22:55Z</time>
      </trkpt>
      <trkpt lat="47.99344" lon="-3.73409">
        <ele>177.5</ele>
        <time>2022-06-28T11:23:04Z</time>
      </trkpt>
      <trkpt lat="47.99341" lon="-3.73393">
        <ele>178.46</ele>
        <time>2022-06-28T11:23:14Z</time>
      </trkpt>
      <trkpt lat="47.99339" lon="-3.73379">
        <ele>178.94</ele>
        <time>2022-06-28T11:23:24Z</time>
      </trkpt>
      <trkpt lat="47.99336" lon="-3.73362">
        <ele>178.94</ele>
        <time>2022-06-28T11:23:34Z</time>
      </trkpt>
      <trkpt lat="47.99335" lon="-3.73344">
        <ele>179.42</ele>
        <time>2022-06-28T11:23:44Z</time>
      </trkpt>
      <trkpt lat="47.9933" lon="-3.73331">
        <ele>179.9</ele>
        <time>2022-06-28T11:23:52Z</time>
      </trkpt>
      <trkpt lat="47.99343" lon="-3.73329">
        <ele>179.9</ele>
        <time>2022-06-28T11:24:11Z</time>
      </trkpt>
      <trkpt lat="47.99353" lon="-3.73326">
        <ele>179.42</ele>
        <time>2022-06-28T11:24:21Z</time>
      </trkpt>
      <trkpt lat="47.99364" lon="-3.73322">
        <ele>179.9</ele>
        <time>2022-06-28T11:24:33Z</time>
      </trkpt>
      <trkpt lat="47.99377" lon="-3.73319">
        <ele>179.9</ele>
        <time>2022-06-28T11:24:46Z</time>
      </trkpt>
      <trkpt lat="47.99395" lon="-3.73313">
        <ele>179.42</ele>
        <time>2022-06-28T11:25:01Z</time>
      </trkpt>
      <trkpt lat="47.99416" lon="-3.73308">
        <ele>179.9</ele>
        <time>2022-06-28T11:25:20Z</time>
      </trkpt>
      <trkpt lat="47.99436" lon="-3.73297">
        <ele>178.94</ele>
        <time>2022-06-28T11:25:36Z</time>
      </trkpt>
      <trkpt lat="47.99451" lon="-3.73289">
        <ele>178.94</ele>
        <time>2022-06-28T11:25:47Z</time>
      </trkpt>
      <trkpt lat="47.99465" lon="-3.73286">
        <ele>178.94</ele>
        <time>2022-06-28T11:26:01Z</time>
      </trkpt>
      <trkpt lat="47.99477" lon="-3.73281">
        <ele>177.98</ele>
        <time>2022-06-28T11:26:11Z</time>
      </trkpt>
      <trkpt lat="47.99489" lon="-3.73277">
        <ele>177.02</ele>
        <time>2022-06-28T11:26:24Z</time>
      </trkpt>
      <trkpt lat="47.99501" lon="-3.73273">
        <ele>176.54</ele>
        <time>2022-06-28T11:26:37Z</time>
      </trkpt>
      <trkpt lat="47.99516" lon="-3.73268">
        <ele>176.54</ele>
        <time>2022-06-28T11:26:46Z</time>
      </trkpt>
      <trkpt lat="47.99518" lon="-3.73251">
        <ele>175.58</ele>
        <time>2022-06-28T11:26:56Z</time>
      </trkpt>
      <trkpt lat="47.99514" lon="-3.73232">
        <ele>174.62</ele>
        <time>2022-06-28T11:27:07Z</time>
      </trkpt>
      <trkpt lat="47.99512" lon="-3.73215">
        <ele>173.66</ele>
        <time>2022-06-28T11:27:18Z</time>
      </trkpt>
      <trkpt lat="47.99512" lon="-3.73196">
        <ele>172.69</ele>
        <time>2022-06-28T11:27:28Z</time>
      </trkpt>
      <trkpt lat="47.99512" lon="-3.73175">
        <ele>171.73</ele>
        <time>2022-06-28T11:27:42Z</time>
      </trkpt>
      <trkpt lat="47.99503" lon="-3.7315">
        <ele>171.25</ele>
        <time>2022-06-28T11:27:54Z</time>
      </trkpt>
      <trkpt lat="47.99501" lon="-3.73131">
        <ele>171.73</ele>
        <time>2022-06-28T11:28:04Z</time>
      </trkpt>
      <trkpt lat="47.99499" lon="-3.73117">
        <ele>171.73</ele>
        <time>2022-06-28T11:28:12Z</time>
      </trkpt>
      <trkpt lat="47.995" lon="-3.73102">
        <ele>172.21</ele>
        <time>2022-06-28T11:28:21Z</time>
      </trkpt>
      <trkpt lat="47.99495" lon="-3.73084">
        <ele>172.69</ele>
        <time>2022-06-28T11:28:32Z</time>
      </trkpt>
      <trkpt lat="47.99492" lon="-3.73064">
        <ele>173.17</ele>
        <time>2022-06-28T11:28:41Z</time>
      </trkpt>
      <trkpt lat="47.99488" lon="-3.73045">
        <ele>174.62</ele>
        <time>2022-06-28T11:28:53Z</time>
      </trkpt>
      <trkpt lat="47.99485" lon="-3.73024">
        <ele>176.06</ele>
        <time>2022-06-28T11:29:06Z</time>
      </trkpt>
      <trkpt lat="47.99493" lon="-3.73018">
        <ele>175.58</ele>
        <time>2022-06-28T11:29:40Z</time>
      </trkpt>
      <trkpt lat="47.99503" lon="-3.73013">
        <ele>175.58</ele>
        <time>2022-06-28T11:29:52Z</time>
      </trkpt>
      <trkpt lat="47.99514" lon="-3.73005">
        <ele>175.58</ele>
        <time>2022-06-28T11:30:04Z</time>
      </trkpt>
      <trkpt lat="47.99525" lon="-3.73001">
        <ele>176.06</ele>
        <time>2022-06-28T11:30:16Z</time>
      </trkpt>
      <trkpt lat="47.99539" lon="-3.72994">
        <ele>177.5</ele>
        <time>2022-06-28T11:30:29Z</time>
      </trkpt>
      <trkpt lat="47.99554" lon="-3.72997">
        <ele>177.98</ele>
        <time>2022-06-28T11:31:30Z</time>
      </trkpt>
      <trkpt lat="47.99572" lon="-3.72983">
        <ele>178.46</ele>
        <time>2022-06-28T11:32:10Z</time>
      </trkpt>
      <trkpt lat="47.99586" lon="-3.72976">
        <ele>179.42</ele>
        <time>2022-06-28T11:32:22Z</time>
      </trkpt>
      <trkpt lat="47.99598" lon="-3.72969">
        <ele>180.38</ele>
        <time>2022-06-28T11:32:35Z</time>
      </trkpt>
      <trkpt lat="47.9961" lon="-3.72961">
        <ele>180.38</ele>
        <time>2022-06-28T11:32:48Z</time>
      </trkpt>
      <trkpt lat="47.99621" lon="-3.72953">
        <ele>180.87</ele>
        <time>2022-06-28T11:32:59Z</time>
      </trkpt>
      <trkpt lat="47.99633" lon="-3.72947">
        <ele>180.87</ele>
        <time>2022-06-28T11:33:09Z</time>
      </trkpt>
      <trkpt lat="47.99647" lon="-3.72936">
        <ele>180.87</ele>
        <time>2022-06-28T11:33:23Z</time>
      </trkpt>
      <trkpt lat="47.99663" lon="-3.72923">
        <ele>180.38</ele>
        <time>2022-06-28T11:33:40Z</time>
      </trkpt>
      <trkpt lat="47.99675" lon="-3.72913">
        <ele>179.9</ele>
        <time>2022-06-28T11:33:50Z</time>
      </trkpt>
      <trkpt lat="47.99684" lon="-3.72903">
        <ele>178.46</ele>
        <time>2022-06-28T11:34:03Z</time>
      </trkpt>
      <trkpt lat="47.99698" lon="-3.72887">
        <ele>177.98</ele>
        <time>2022-06-28T11:34:19Z</time>
      </trkpt>
      <trkpt lat="47.99709" lon="-3.72887">
        <ele>177.02</ele>
        <time>2022-06-28T11:34:28Z</time>
      </trkpt>
      <trkpt lat="47.99723" lon="-3.72879">
        <ele>176.06</ele>
        <time>2022-06-28T11:34:44Z</time>
      </trkpt>
      <trkpt lat="47.99737" lon="-3.72864">
        <ele>176.06</ele>
        <time>2022-06-28T11:34:56Z</time>
      </trkpt>
      <trkpt lat="47.99749" lon="-3.7285">
        <ele>175.58</ele>
        <time>2022-06-28T11:35:10Z</time>
      </trkpt>
      <trkpt lat="47.99759" lon="-3.72845">
        <ele>175.58</ele>
        <time>2022-06-28T11:35:21Z</time>
      </trkpt>
      <trkpt lat="47.99769" lon="-3.72837">
        <ele>177.02</ele>
        <time>2022-06-28T11:35:35Z</time>
      </trkpt>
      <trkpt lat="47.99776" lon="-3.72831">
        <ele>177.98</ele>
        <time>2022-06-28T11:35:46Z</time>
      </trkpt>
      <trkpt lat="47.99788" lon="-3.72821">
        <ele>177.98</ele>
        <time>2022-06-28T11:35:59Z</time>
      </trkpt>
      <trkpt lat="47.99801" lon="-3.72816">
        <ele>177.98</ele>
        <time>2022-06-28T11:36:10Z</time>
      </trkpt>
      <trkpt lat="47.99815" lon="-3.72811">
        <ele>177.5</ele>
        <time>2022-06-28T11:36:24Z</time>
      </trkpt>
      <trkpt lat="47.99833" lon="-3.72806">
        <ele>177.5</ele>
        <time>2022-06-28T11:36:39Z</time>
      </trkpt>
      <trkpt lat="47.99847" lon="-3.72807">
        <ele>176.54</ele>
        <time>2022-06-28T11:36:51Z</time>
      </trkpt>
      <trkpt lat="47.99861" lon="-3.72803">
        <ele>176.54</ele>
        <time>2022-06-28T11:37:00Z</time>
      </trkpt>
      <trkpt lat="47.9987" lon="-3.72789">
        <ele>176.06</ele>
        <time>2022-06-28T11:37:11Z</time>
      </trkpt>
      <trkpt lat="47.99869" lon="-3.72775">
        <ele>176.54</ele>
        <time>2022-06-28T11:37:25Z</time>
      </trkpt>
      <trkpt lat="47.9987" lon="-3.7276">
        <ele>176.06</ele>
        <time>2022-06-28T11:37:46Z</time>
      </trkpt>
      <trkpt lat="47.99864" lon="-3.72747">
        <ele>175.58</ele>
        <time>2022-06-28T11:38:19Z</time>
      </trkpt>
      <trkpt lat="47.99865" lon="-3.72727">
        <ele>174.62</ele>
        <time>2022-06-28T11:38:32Z</time>
      </trkpt>
      <trkpt lat="47.99863" lon="-3.7271">
        <ele>174.14</ele>
        <time>2022-06-28T11:38:42Z</time>
      </trkpt>
      <trkpt lat="47.9986" lon="-3.72689">
        <ele>175.1</ele>
        <time>2022-06-28T11:38:54Z</time>
      </trkpt>
      <trkpt lat="47.99858" lon="-3.72665">
        <ele>174.62</ele>
        <time>2022-06-28T11:39:08Z</time>
      </trkpt>
      <trkpt lat="47.99856" lon="-3.72642">
        <ele>173.17</ele>
        <time>2022-06-28T11:39:25Z</time>
      </trkpt>
      <trkpt lat="47.9985" lon="-3.72614">
        <ele>173.66</ele>
        <time>2022-06-28T11:39:44Z</time>
      </trkpt>
      <trkpt lat="47.99847" lon="-3.72597">
        <ele>173.66</ele>
        <time>2022-06-28T11:39:53Z</time>
      </trkpt>
      <trkpt lat="47.99845" lon="-3.72579">
        <ele>173.66</ele>
        <time>2022-06-28T11:40:06Z</time>
      </trkpt>
      <trkpt lat="47.99839" lon="-3.72556">
        <ele>174.62</ele>
        <time>2022-06-28T11:40:19Z</time>
      </trkpt>
      <trkpt lat="47.99836" lon="-3.72538">
        <ele>175.1</ele>
        <time>2022-06-28T11:40:30Z</time>
      </trkpt>
      <trkpt lat="47.99827" lon="-3.72527">
        <ele>176.06</ele>
        <time>2022-06-28T11:40:43Z</time>
      </trkpt>
      <trkpt lat="47.99814" lon="-3.7253">
        <ele>177.5</ele>
        <time>2022-06-28T11:40:57Z</time>
      </trkpt>
      <trkpt lat="47.99796" lon="-3.72528">
        <ele>177.98</ele>
        <time>2022-06-28T11:41:08Z</time>
      </trkpt>
      <trkpt lat="47.99784" lon="-3.72533">
        <ele>177.98</ele>
        <time>2022-06-28T11:41:21Z</time>
      </trkpt>
      <trkpt lat="47.99774" lon="-3.72539">
        <ele>179.42</ele>
        <time>2022-06-28T11:41:33Z</time>
      </trkpt>
      <trkpt lat="47.99759" lon="-3.72547">
        <ele>179.42</ele>
        <time>2022-06-28T11:41:48Z</time>
      </trkpt>
      <trkpt lat="47.99745" lon="-3.72559">
        <ele>179.9</ele>
        <time>2022-06-28T11:42:03Z</time>
      </trkpt>
      <trkpt lat="47.99733" lon="-3.7257">
        <ele>180.87</ele>
        <time>2022-06-28T11:42:16Z</time>
      </trkpt>
      <trkpt lat="47.99717" lon="-3.72583">
        <ele>180.38</ele>
        <time>2022-06-28T11:42:33Z</time>
      </trkpt>
      <trkpt lat="47.99704" lon="-3.72585">
        <ele>180.87</ele>
        <time>2022-06-28T11:42:44Z</time>
      </trkpt>
      <trkpt lat="47.9969" lon="-3.72586">
        <ele>180.87</ele>
        <time>2022-06-28T11:42:56Z</time>
      </trkpt>
      <trkpt lat="47.99676" lon="-3.72588">
        <ele>180.38</ele>
        <time>2022-06-28T11:43:06Z</time>
      </trkpt>
      <trkpt lat="47.99665" lon="-3.72587">
        <ele>179.9</ele>
        <time>2022-06-28T11:43:15Z</time>
      </trkpt>
      <trkpt lat="47.99654" lon="-3.72586">
        <ele>178.94</ele>
        <time>2022-06-28T11:43:26Z</time>
      </trkpt>
      <trkpt lat="47.99646" lon="-3.72576">
        <ele>179.42</ele>
        <time>2022-06-28T11:43:34Z</time>
      </trkpt>
      <trkpt lat="47.99635" lon="-3.72568">
        <ele>178.46</ele>
        <time>2022-06-28T11:43:44Z</time>
      </trkpt>
      <trkpt lat="47.99624" lon="-3.72559">
        <ele>177.02</ele>
        <time>2022-06-28T11:43:58Z</time>
      </trkpt>
      <trkpt lat="47.99613" lon="-3.72558">
        <ele>176.54</ele>
        <time>2022-06-28T11:44:08Z</time>
      </trkpt>
      <trkpt lat="47.99601" lon="-3.72554">
        <ele>176.06</ele>
        <time>2022-06-28T11:44:21Z</time>
      </trkpt>
      <trkpt lat="47.99592" lon="-3.7254">
        <ele>175.58</ele>
        <time>2022-06-28T11:44:32Z</time>
      </trkpt>
      <trkpt lat="47.99581" lon="-3.7253">
        <ele>175.1</ele>
        <time>2022-06-28T11:44:44Z</time>
      </trkpt>
      <trkpt lat="47.99573" lon="-3.72511">
        <ele>175.58</ele>
        <time>2022-06-28T11:44:56Z</time>
      </trkpt>
      <trkpt lat="47.99568" lon="-3.72495">
        <ele>176.06</ele>
        <time>2022-06-28T11:45:03Z</time>
      </trkpt>
      <trkpt lat="47.9956" lon="-3.72479">
        <ele>175.58</ele>
        <time>2022-06-28T11:45:14Z</time>
      </trkpt>
      <trkpt lat="47.99552" lon="-3.72462">
        <ele>175.58</ele>
        <time>2022-06-28T11:45:27Z</time>
      </trkpt>
      <trkpt lat="47.99544" lon="-3.72437">
        <ele>176.54</ele>
        <time>2022-06-28T11:45:43Z</time>
      </trkpt>
      <trkpt lat="47.99533" lon="-3.72422">
        <ele>178.94</ele>
        <time>2022-06-28T11:45:56Z</time>
      </trkpt>
      <trkpt lat="47.9952" lon="-3.72406">
        <ele>178.94</ele>
        <time>2022-06-28T11:46:08Z</time>
      </trkpt>
      <trkpt lat="47.99507" lon="-3.72394">
        <ele>179.42</ele>
        <time>2022-06-28T11:46:20Z</time>
      </trkpt>
      <trkpt lat="47.99496" lon="-3.7239">
        <ele>179.9</ele>
        <time>2022-06-28T11:46:31Z</time>
      </trkpt>
      <trkpt lat="47.99485" lon="-3.72386">
        <ele>180.38</ele>
        <time>2022-06-28T11:46:44Z</time>
      </trkpt>
      <trkpt lat="47.99473" lon="-3.72384">
        <ele>180.38</ele>
        <time>2022-06-28T11:46:55Z</time>
      </trkpt>
      <trkpt lat="47.99457" lon="-3.72386">
        <ele>180.87</ele>
        <time>2022-06-28T11:47:07Z</time>
      </trkpt>
      <trkpt lat="47.9944" lon="-3.72386">
        <ele>181.35</ele>
        <time>2022-06-28T11:47:22Z</time>
      </trkpt>
      <trkpt lat="47.99424" lon="-3.72381">
        <ele>181.35</ele>
        <time>2022-06-28T11:47:34Z</time>
      </trkpt>
      <trkpt lat="47.99413" lon="-3.72379">
        <ele>181.83</ele>
        <time>2022-06-28T11:47:43Z</time>
      </trkpt>
      <trkpt lat="47.99402" lon="-3.72376">
        <ele>181.35</ele>
        <time>2022-06-28T11:47:51Z</time>
      </trkpt>
      <trkpt lat="47.99391" lon="-3.72378">
        <ele>181.83</ele>
        <time>2022-06-28T11:48:01Z</time>
      </trkpt>
      <trkpt lat="47.99381" lon="-3.72391">
        <ele>182.79</ele>
        <time>2022-06-28T11:48:16Z</time>
      </trkpt>
    </trkseg>
  </trk>
</gpx>